Time;durP1;ratioP1;P1;durP2;ratioP2;P2;SDS_P1;SDS_P2;PMS_P1;PMS_P2;Temp;Humidity;BMP_temperature;BMP_pressure;BME280_temperature;BME280_humidity;BME280_pressure;Samples;Min_cycle;Max_cycle;Signal;HPM_P1;HPM_P2
2022/03/04 00:01:46;;;;;;;27.38;16.63;;;;;;;;;;4927189;29;20558;-80
2022/03/04 00:04:12;;;;;;;26.53;17.30;;;;;;;;;;4926323;29;20047;-80
2022/03/04 00:06:38;;;;;;;29.10;18.38;;;;;;;;;;4927481;29;20134;-81
2022/03/04 00:09:03;;;;;;;26.83;17.60;;;;;;;;;;4914735;29;20606;-81
2022/03/04 00:11:29;;;;;;;28.15;18.50;;;;;;;;;;4926783;29;20046;-81
2022/03/04 00:13:55;;;;;;;29.10;19.27;;;;;;;;;;4928791;29;20797;-81
2022/03/04 00:16:20;;;;;;;26.63;17.13;;;;;;;;;;4914791;29;20036;-80
2022/03/04 00:18:45;;;;;;;25.40;17.27;;;;;;;;;;4930091;29;20174;-80
2022/03/04 00:21:11;;;;;;;27.00;17.33;;;;;;;;;;4929236;29;20047;-81
2022/03/04 00:23:37;;;;;;;27.02;18.52;;;;;;;;;;4915190;29;20027;-80
2022/03/04 00:26:05;;;;;;;26.38;18.45;;;;;;;;;;4929993;29;20082;-80
2022/03/04 00:28:31;;;;;;;28.33;19.92;;;;;;;;;;4913427;29;20499;-80
2022/03/04 00:30:56;;;;;;;28.40;20.65;;;;;;;;;;4929494;28;20138;-80
2022/03/04 00:33:21;;;;;;;30.88;21.15;;;;;;;;;;4915296;29;20579;-81
2022/03/04 00:35:46;;;;;;;31.67;20.98;;;;;;;;;;4930242;29;20039;-81
2022/03/04 00:38:12;;;;;;;31.58;20.40;;;;;;;;;;4929881;29;20170;-81
2022/03/04 00:40:37;;;;;;;31.30;21.88;;;;;;;;;;4929443;29;20047;-81
2022/03/04 00:43:02;;;;;;;29.20;21.25;;;;;;;;;;4933795;29;20035;-80
2022/03/04 00:45:28;;;;;;;32.88;22.13;;;;;;;;;;4914865;29;20051;-81
2022/03/04 00:47:53;;;;;;;32.47;22.85;;;;;;;;;;4946331;29;20458;-80
2022/03/04 00:50:18;;;;;;;29.45;20.92;;;;;;;;;;4915404;29;20163;-81
2022/03/04 00:52:44;;;;;;;27.95;19.80;;;;;;;;;;4917188;29;20182;-80
2022/03/04 00:55:09;;;;;;;30.50;20.25;;;;;;;;;;4930224;29;20106;-81
2022/03/04 00:57:35;;;;;;;28.45;19.40;;;;;;;;;;4914570;29;20043;-81
2022/03/04 01:00:00;;;;;;;32.35;19.75;;;;;;;;;;4930525;29;20039;-81
2022/03/04 01:02:25;;;;;;;28.52;19.52;;;;;;;;;;4925799;29;20602;-80
2022/03/04 01:04:51;;;;;;;32.03;20.25;;;;;;;;;;4930589;29;20106;-80
2022/03/04 01:07:16;;;;;;;30.23;20.58;;;;;;;;;;4917979;29;20071;-81
2022/03/04 01:09:41;;;;;;;31.80;20.02;;;;;;;;;;4946925;29;20028;-81
2022/03/04 01:12:07;;;;;;;29.45;20.25;;;;;;;;;;4930861;29;20043;-81
2022/03/04 01:14:33;;;;;;;30.02;19.80;;;;;;;;;;4915145;29;20051;-80
2022/03/04 01:16:58;;;;;;;26.40;17.33;;;;;;;;;;4914688;29;20089;-81
2022/03/04 01:19:23;;;;;;;25.25;16.52;;;;;;;;;;4916588;29;20039;-81
2022/03/04 01:21:49;;;;;;;23.85;17.35;;;;;;;;;;4918346;29;20039;-81
2022/03/04 01:24:14;;;;;;;26.52;17.70;;;;;;;;;;4946811;29;20692;-81
2022/03/04 01:26:39;;;;;;;24.58;17.50;;;;;;;;;;4913143;29;20468;-80
2022/03/04 01:29:05;;;;;;;28.08;18.23;;;;;;;;;;4929997;29;20038;-80
2022/03/04 01:31:30;;;;;;;26.38;15.35;;;;;;;;;;4945755;29;20090;-80
2022/03/04 01:33:56;;;;;;;24.48;16.45;;;;;;;;;;4915428;29;20121;-80
2022/03/04 01:36:21;;;;;;;21.88;14.43;;;;;;;;;;4913776;29;20142;-81
2022/03/04 01:38:46;;;;;;;19.40;13.30;;;;;;;;;;4915313;29;20043;-80
2022/03/04 01:41:12;;;;;;;19.63;11.73;;;;;;;;;;4944052;29;20039;-80
2022/03/04 01:43:37;;;;;;;17.48;10.52;;;;;;;;;;4913341;29;20066;-79
2022/03/04 01:46:14;;;;;;;19.25;10.57;;;;;;;;;;4916556;29;20059;-80
2022/03/04 01:48:40;;;;;;;15.87;10.60;;;;;;;;;;4929853;29;20106;-80
2022/03/04 01:51:07;;;;;;;16.70;10.30;;;;;;;;;;4926693;29;20043;-80
2022/03/04 01:53:32;;;;;;;20.02;10.63;;;;;;;;;;4928332;29;20060;-80
2022/03/04 01:55:58;;;;;;;16.75;10.75;;;;;;;;;;4912702;29;20993;-80
2022/03/04 01:58:24;;;;;;;17.38;10.90;;;;;;;;;;4929340;29;20055;-80
2022/03/04 02:00:51;;;;;;;18.98;10.38;;;;;;;;;;4912814;29;20031;-79
2022/03/04 02:03:16;;;;;;;25.25;11.63;;;;;;;;;;4914301;28;20051;-80
2022/03/04 02:05:42;;;;;;;24.05;12.10;;;;;;;;;;4912989;29;20032;-80
2022/03/04 02:08:07;;;;;;;23.15;11.85;;;;;;;;;;4929394;29;20035;-80
2022/03/04 02:10:33;;;;;;;20.08;11.55;;;;;;;;;;4927068;29;20126;-80
2022/03/04 02:12:58;;;;;;;20.42;11.57;;;;;;;;;;4917832;29;20141;-80
2022/03/04 02:15:23;;;;;;;23.02;11.43;;;;;;;;;;4944816;29;20292;-79
2022/03/04 02:17:49;;;;;;;26.48;11.35;;;;;;;;;;4929520;29;20697;-80
2022/03/04 02:20:14;;;;;;;28.15;13.05;;;;;;;;;;4913820;29;20036;-79
2022/03/04 02:22:39;;;;;;;27.48;12.85;;;;;;;;;;4916830;29;20046;-81
2022/03/04 02:25:05;;;;;;;30.40;13.68;;;;;;;;;;4912649;29;20050;-80
2022/03/04 02:27:32;;;;;;;31.55;14.60;;;;;;;;;;4929020;29;20051;-80
2022/03/04 02:29:58;;;;;;;36.77;16.53;;;;;;;;;;4912375;29;20066;-80
2022/03/04 02:32:24;;;;;;;41.42;15.85;;;;;;;;;;4928873;29;20162;-81
2022/03/04 02:34:49;;;;;;;45.92;17.88;;;;;;;;;;4912301;29;20114;-79
2022/03/04 02:37:15;;;;;;;41.13;15.50;;;;;;;;;;4927533;29;20031;-80
2022/03/04 02:39:40;;;;;;;43.60;17.13;;;;;;;;;;4927628;29;20054;-80
2022/03/04 02:42:06;;;;;;;44.05;17.17;;;;;;;;;;4944383;29;20042;-80
2022/03/04 02:44:31;;;;;;;45.67;17.27;;;;;;;;;;4928661;29;20046;-80
2022/03/04 02:46:56;;;;;;;40.53;16.25;;;;;;;;;;4927546;29;20040;-80
2022/03/04 02:49:22;;;;;;;43.05;17.45;;;;;;;;;;4943689;28;20043;-80
2022/03/04 02:51:47;;;;;;;39.25;16.08;;;;;;;;;;4914699;29;20491;-80
2022/03/04 02:54:12;;;;;;;38.53;15.15;;;;;;;;;;4929121;29;20055;-80
2022/03/04 02:56:38;;;;;;;37.13;14.43;;;;;;;;;;4926388;29;20047;-80
2022/03/04 02:59:03;;;;;;;40.17;14.27;;;;;;;;;;4911979;29;20039;-80
2022/03/04 03:01:28;;;;;;;41.92;15.10;;;;;;;;;;4910737;29;20039;-81
2022/03/04 03:03:54;;;;;;;41.08;15.05;;;;;;;;;;4928590;29;20087;-81
2022/03/04 03:06:19;;;;;;;35.15;14.38;;;;;;;;;;4910379;29;20077;-80
2022/03/04 03:08:45;;;;;;;32.22;12.80;;;;;;;;;;4928925;29;20866;-80
2022/03/04 03:11:10;;;;;;;27.92;12.60;;;;;;;;;;4917047;29;20044;-80
2022/03/04 03:13:35;;;;;;;33.88;13.18;;;;;;;;;;4913176;29;20039;-80
2022/03/04 03:16:01;;;;;;;29.67;11.43;;;;;;;;;;4912632;29;20035;-80
2022/03/04 03:18:26;;;;;;;27.92;10.45;;;;;;;;;;4945689;29;20047;-80
2022/03/04 03:20:51;;;;;;;24.50;9.23;;;;;;;;;;4926752;29;20443;-79
2022/03/04 03:23:17;;;;;;;31.15;11.20;;;;;;;;;;4917910;29;20058;-81
2022/03/04 03:25:42;;;;;;;26.75;10.65;;;;;;;;;;4926073;29;20515;-79
2022/03/04 03:28:07;;;;;;;27.83;11.15;;;;;;;;;;4927264;29;20047;-80
2022/03/04 03:30:33;;;;;;;30.67;12.00;;;;;;;;;;4926692;29;20435;-80
2022/03/04 03:32:58;;;;;;;26.70;10.73;;;;;;;;;;4911845;29;20499;-80
2022/03/04 03:35:25;;;;;;;25.17;10.52;;;;;;;;;;4911988;29;20521;-80
2022/03/04 03:37:50;;;;;;;25.70;10.50;;;;;;;;;;4912111;29;20035;-79
2022/03/04 03:40:16;;;;;;;27.02;11.75;;;;;;;;;;4910083;29;20066;-80
2022/03/04 03:42:42;;;;;;;26.77;10.35;;;;;;;;;;4912003;29;20042;-79
2022/03/04 03:45:09;;;;;;;26.63;10.20;;;;;;;;;;4910966;29;20077;-82
2022/03/04 03:47:34;;;;;;;25.63;10.18;;;;;;;;;;4911335;28;20047;-80
2022/03/04 03:49:59;;;;;;;30.85;12.02;;;;;;;;;;4914526;29;20039;-80
2022/03/04 03:52:25;;;;;;;26.92;10.07;;;;;;;;;;4917107;29;20047;-81
2022/03/04 03:54:51;;;;;;;28.63;11.27;;;;;;;;;;4910773;29;20118;-80
2022/03/04 03:57:16;;;;;;;28.10;10.43;;;;;;;;;;4914932;29;20111;-80
2022/03/04 03:59:41;;;;;;;25.83;10.25;;;;;;;;;;4929628;28;20422;-80
2022/03/04 04:02:07;;;;;;;23.90;10.05;;;;;;;;;;4945427;29;20093;-80
2022/03/04 04:04:34;;;;;;;25.48;10.30;;;;;;;;;;4929812;29;20054;-80
2022/03/04 04:07:08;;;;;;;23.17;8.82;;;;;;;;;;4931196;29;20443;-80
2022/03/04 04:09:33;;;;;;;22.33;8.88;;;;;;;;;;4930244;29;20506;-80
2022/03/04 04:11:59;;;;;;;21.85;8.90;;;;;;;;;;4946944;29;20040;-80
2022/03/04 04:14:26;;;;;;;23.10;8.27;;;;;;;;;;4932400;29;20515;-81
2022/03/04 04:16:51;;;;;;;18.77;7.75;;;;;;;;;;4914796;29;20036;-79
2022/03/04 04:19:16;;;;;;;18.15;7.90;;;;;;;;;;4931342;29;20505;-82
2022/03/04 04:21:42;;;;;;;18.58;7.97;;;;;;;;;;4929804;29;20081;-80
2022/03/04 04:24:07;;;;;;;21.38;7.97;;;;;;;;;;4931970;29;20036;-80
2022/03/04 04:26:35;;;;;;;17.30;7.55;;;;;;;;;;4911011;29;20058;-81
2022/03/04 04:29:01;;;;;;;20.10;8.85;;;;;;;;;;4915877;29;20039;-82
2022/03/04 04:31:26;;;;;;;20.83;8.80;;;;;;;;;;4918586;29;20098;-81
2022/03/04 04:33:51;;;;;;;20.00;9.02;;;;;;;;;;4931504;29;20043;-81
2022/03/04 04:36:17;;;;;;;21.27;9.05;;;;;;;;;;4931230;29;20089;-81
2022/03/04 04:38:43;;;;;;;21.85;9.90;;;;;;;;;;4915432;29;20035;-81
2022/03/04 04:41:08;;;;;;;24.38;9.30;;;;;;;;;;4913487;29;20027;-80
2022/03/04 04:43:34;;;;;;;22.00;9.55;;;;;;;;;;4946254;28;20062;-80
2022/03/04 04:46:00;;;;;;;21.88;9.63;;;;;;;;;;4913872;29;20027;-80
2022/03/04 04:48:25;;;;;;;23.23;10.25;;;;;;;;;;4930881;29;20063;-81
2022/03/04 04:50:51;;;;;;;20.60;10.20;;;;;;;;;;4914154;29;20121;-81
2022/03/04 04:53:16;;;;;;;20.27;9.88;;;;;;;;;;4930772;29;20031;-80
2022/03/04 04:55:42;;;;;;;21.73;10.20;;;;;;;;;;4929198;29;20390;-81
2022/03/04 04:58:07;;;;;;;24.60;10.43;;;;;;;;;;4928993;29;20085;-80
2022/03/04 05:00:32;;;;;;;25.05;10.32;;;;;;;;;;4917889;29;20054;-80
2022/03/04 05:02:58;;;;;;;23.85;10.93;;;;;;;;;;4915001;28;20387;-80
2022/03/04 05:05:23;;;;;;;25.15;11.13;;;;;;;;;;4929826;29;20043;-81
2022/03/04 05:07:49;;;;;;;24.48;10.15;;;;;;;;;;4916779;29;20416;-81
2022/03/04 05:10:14;;;;;;;23.35;10.30;;;;;;;;;;4926868;29;20521;-81
2022/03/04 05:12:40;;;;;;;25.17;10.57;;;;;;;;;;4929333;29;20059;-81
2022/03/04 05:15:06;;;;;;;23.65;10.57;;;;;;;;;;4928591;29;20087;-81
2022/03/04 05:17:32;;;;;;;23.37;10.60;;;;;;;;;;4930344;29;20487;-83
2022/03/04 05:19:57;;;;;;;25.13;10.57;;;;;;;;;;4914496;29;20041;-82
2022/03/04 05:22:23;;;;;;;23.10;10.23;;;;;;;;;;4932667;29;20035;-81
2022/03/04 05:24:48;;;;;;;22.77;10.57;;;;;;;;;;4929275;29;20047;-80
2022/03/04 05:27:13;;;;;;;23.48;10.35;;;;;;;;;;4903105;29;20122;-81
2022/03/04 05:29:38;;;;;;;21.65;11.00;;;;;;;;;;4928195;29;20063;-80
2022/03/04 05:32:04;;;;;;;25.02;10.98;;;;;;;;;;4927937;29;20031;-81
2022/03/04 05:34:29;;;;;;;23.42;9.77;;;;;;;;;;4902942;29;20431;-81
2022/03/04 05:36:55;;;;;;;22.77;10.63;;;;;;;;;;4928505;29;20097;-81
2022/03/04 05:39:20;;;;;;;29.55;11.32;;;;;;;;;;4945690;28;20043;-81
2022/03/04 05:41:45;;;;;;;21.17;10.35;;;;;;;;;;4916175;29;20039;-81
2022/03/04 05:44:11;;;;;;;25.35;10.40;;;;;;;;;;4927185;29;20043;-80
2022/03/04 05:46:36;;;;;;;21.35;9.30;;;;;;;;;;4927835;29;20058;-83
2022/03/04 05:49:02;;;;;;;20.38;10.07;;;;;;;;;;4915933;29;20063;-82
2022/03/04 05:51:28;;;;;;;20.52;9.50;;;;;;;;;;4914507;29;20070;-83
2022/03/04 05:53:54;;;;;;;19.90;9.35;;;;;;;;;;4913541;29;20031;-83
2022/03/04 05:56:19;;;;;;;18.02;9.50;;;;;;;;;;4916253;29;20038;-83
2022/03/04 05:58:45;;;;;;;24.85;10.02;;;;;;;;;;4929619;29;20119;-83
2022/03/04 06:01:11;;;;;;;21.02;9.55;;;;;;;;;;4913962;29;20615;-82
2022/03/04 06:03:37;;;;;;;19.63;10.20;;;;;;;;;;4925074;29;20054;-82
2022/03/04 06:06:03;;;;;;;20.50;9.48;;;;;;;;;;4913693;29;20031;-81
2022/03/04 06:08:28;;;;;;;19.85;9.25;;;;;;;;;;4928569;29;20043;-81
2022/03/04 06:10:54;;;;;;;20.55;9.10;;;;;;;;;;4927653;28;20039;-82
2022/03/04 06:13:19;;;;;;;19.98;8.88;;;;;;;;;;4913368;29;20039;-81
2022/03/04 06:15:45;;;;;;;26.38;10.45;;;;;;;;;;4927812;29;20039;-81
2022/03/04 06:18:10;;;;;;;22.58;9.50;;;;;;;;;;4927698;29;21067;-81
2022/03/04 06:20:35;;;;;;;21.48;9.43;;;;;;;;;;4926898;29;20047;-81
2022/03/04 06:23:01;;;;;;;17.10;8.25;;;;;;;;;;4929215;29;20031;-82
2022/03/04 06:25:26;;;;;;;15.02;7.85;;;;;;;;;;4927774;29;20043;-81
2022/03/04 06:27:55;;;;;;;18.38;8.93;;;;;;;;;;4929300;29;20597;-82
2022/03/04 06:30:21;;;;;;;17.17;8.40;;;;;;;;;;4912767;29;20090;-81
2022/03/04 06:32:48;;;;;;;18.77;8.93;;;;;;;;;;4928616;29;20047;-81
2022/03/04 06:35:13;;;;;;;17.73;8.60;;;;;;;;;;4928001;29;20060;-81
2022/03/04 06:37:38;;;;;;;17.17;8.38;;;;;;;;;;4897141;29;20119;-81
2022/03/04 06:40:06;;;;;;;15.18;8.60;;;;;;;;;;4926723;28;20054;-80
2022/03/04 06:42:32;;;;;;;14.50;7.85;;;;;;;;;;4922291;28;21868;-81
2022/03/04 06:44:57;;;;;;;17.17;8.35;;;;;;;;;;4913200;29;20047;-81
2022/03/04 06:47:22;;;;;;;16.95;7.32;;;;;;;;;;4911336;29;20043;-81
2022/03/04 06:49:48;;;;;;;14.32;6.78;;;;;;;;;;4927028;29;20484;-81
2022/03/04 06:52:13;;;;;;;15.40;6.75;;;;;;;;;;4926881;29;20399;-81
2022/03/04 06:54:39;;;;;;;15.68;7.80;;;;;;;;;;4927692;29;20047;-81
2022/03/04 06:57:04;;;;;;;13.93;7.40;;;;;;;;;;4927550;29;20039;-81
2022/03/04 06:59:30;;;;;;;15.18;7.60;;;;;;;;;;4912771;29;20050;-82
2022/03/04 07:01:55;;;;;;;11.32;6.45;;;;;;;;;;4927131;29;20035;-79
2022/03/04 07:04:20;;;;;;;13.25;6.78;;;;;;;;;;4911933;29;20050;-80
2022/03/04 07:06:46;;;;;;;11.63;5.82;;;;;;;;;;4927060;29;20039;-80
2022/03/04 07:09:11;;;;;;;12.57;5.40;;;;;;;;;;4911279;29;20027;-80
2022/03/04 07:11:37;;;;;;;14.45;5.80;;;;;;;;;;4926253;29;20439;-80
2022/03/04 07:14:02;;;;;;;9.30;4.72;;;;;;;;;;4927792;29;20035;-79
2022/03/04 07:16:27;;;;;;;9.02;4.07;;;;;;;;;;4912261;29;20050;-80
2022/03/04 07:18:53;;;;;;;12.65;3.90;;;;;;;;;;4910592;29;20048;-79
2022/03/04 07:21:18;;;;;;;12.07;3.97;;;;;;;;;;4910279;29;20039;-80
2022/03/04 07:23:44;;;;;;;10.60;4.75;;;;;;;;;;4909881;29;20577;-81
2022/03/04 07:26:10;;;;;;;11.40;4.93;;;;;;;;;;4908920;29;20166;-81
2022/03/04 07:28:36;;;;;;;13.07;5.50;;;;;;;;;;4911824;29;20043;-81
2022/03/04 07:31:01;;;;;;;13.63;5.10;;;;;;;;;;4910883;29;20043;-82
2022/03/04 07:33:26;;;;;;;10.75;4.47;;;;;;;;;;4911126;29;20039;-81
2022/03/04 07:35:51;;;;;;;9.40;4.00;;;;;;;;;;4910586;29;20097;-80
2022/03/04 07:38:17;;;;;;;5.80;3.28;;;;;;;;;;4925610;29;20090;-81
2022/03/04 07:40:43;;;;;;;12.40;3.78;;;;;;;;;;4910922;29;20039;-80
2022/03/04 07:43:09;;;;;;;7.18;3.15;;;;;;;;;;4911246;29;20387;-81
2022/03/04 07:45:34;;;;;;;10.60;4.03;;;;;;;;;;4928159;29;20102;-80
2022/03/04 07:47:59;;;;;;;9.10;3.97;;;;;;;;;;4926322;29;20047;-80
2022/03/04 07:50:25;;;;;;;8.02;4.20;;;;;;;;;;4927322;29;20054;-80
2022/03/04 07:52:50;;;;;;;10.80;4.00;;;;;;;;;;4910067;29;20062;-81
2022/03/04 07:55:16;;;;;;;12.77;4.93;;;;;;;;;;4910194;29;20045;-80
2022/03/04 07:57:42;;;;;;;10.90;5.03;;;;;;;;;;4910236;29;20118;-79
2022/03/04 08:00:10;;;;;;;10.38;5.32;;;;;;;;;;4910545;29;20043;-80
2022/03/04 08:02:36;;;;;;;;;;;;;;;;;;4927086;29;20035;-80
2022/03/04 08:05:01;;;;;;;11.82;4.88;;;;;;;;;;4923053;29;20549;-79
2022/03/04 08:07:27;;;;;;;12.60;6.40;;;;;;;;;;4922368;29;20506;-79
2022/03/04 08:09:52;;;;;;;13.38;6.05;;;;;;;;;;4907479;29;20376;-80
2022/03/04 08:12:17;;;;;;;16.95;6.43;;;;;;;;;;4924317;29;20660;-79
2022/03/04 08:14:46;;;;;;;11.40;6.47;;;;;;;;;;4923368;29;20467;-80
2022/03/04 08:17:11;;;;;;;12.68;5.93;;;;;;;;;;4923131;29;20043;-80
2022/03/04 08:19:39;;;;;;;13.70;6.35;;;;;;;;;;4923083;29;20550;-79
2022/03/04 08:22:05;;;;;;;16.00;6.60;;;;;;;;;;4923236;29;20102;-80
2022/03/04 08:24:30;;;;;;;11.43;5.88;;;;;;;;;;4938712;28;20085;-80
2022/03/04 08:26:55;;;;;;;13.18;5.50;;;;;;;;;;4928330;29;20126;-80
2022/03/04 08:29:21;;;;;;;11.45;5.05;;;;;;;;;;4924395;29;20031;-80
2022/03/04 08:31:46;;;;;;;10.60;5.38;;;;;;;;;;4907262;29;20095;-80
2022/03/04 08:34:11;;;;;;;13.00;5.50;;;;;;;;;;4908660;29;20547;-80
2022/03/04 08:36:37;;;;;;;11.85;5.00;;;;;;;;;;4927792;29;20383;-79
2022/03/04 08:39:05;;;;;;;13.10;5.55;;;;;;;;;;4912467;29;20142;-79
2022/03/04 08:41:32;;;;;;;9.90;4.80;;;;;;;;;;4907861;29;20107;-80
2022/03/04 08:43:58;;;;;;;8.80;4.50;;;;;;;;;;4928278;29;20044;-80
2022/03/04 08:46:23;;;;;;;10.88;4.25;;;;;;;;;;4910916;29;20048;-79
2022/03/04 08:48:48;;;;;;;7.82;3.88;;;;;;;;;;4927873;29;20043;-80
2022/03/04 08:51:14;;;;;;;11.05;4.55;;;;;;;;;;4910317;29;20130;-80
2022/03/04 08:53:39;;;;;;;9.82;4.88;;;;;;;;;;4928328;29;20079;-80
2022/03/04 08:56:05;;;;;;;11.13;4.93;;;;;;;;;;4911025;29;20032;-80
2022/03/04 08:58:30;;;;;;;10.45;4.68;;;;;;;;;;4927742;29;20553;-80
2022/03/04 09:00:56;;;;;;;11.35;4.88;;;;;;;;;;4911959;29;20043;-81
2022/03/04 09:03:21;;;;;;;14.05;5.85;;;;;;;;;;4911434;29;20051;-81
2022/03/04 09:05:47;;;;;;;10.48;5.85;;;;;;;;;;4912105;29;20044;-80
2022/03/04 09:08:13;;;;;;;12.57;6.07;;;;;;;;;;4901477;29;20047;-81
2022/03/04 09:10:38;;;;;;;12.43;5.20;;;;;;;;;;4910671;29;20094;-80
2022/03/04 09:13:06;;;;;;;7.70;4.43;;;;;;;;;;4927543;29;20439;-79
2022/03/04 09:15:32;;;;;;;5.90;3.75;;;;;;;;;;4909874;29;20048;-79
2022/03/04 09:17:58;;;;;;;7.70;3.80;;;;;;;;;;4926724;29;20039;-80
2022/03/04 09:20:23;;;;;;;8.52;4.43;;;;;;;;;;4907182;29;20052;-80
2022/03/04 09:22:49;;;;;;;7.05;4.10;;;;;;;;;;4926320;29;20050;-80
2022/03/04 09:25:14;;;;;;;7.45;4.72;;;;;;;;;;4925550;29;20036;-80
2022/03/04 09:27:46;;;;;;;7.15;4.05;;;;;;;;;;4914385;29;20103;-80
2022/03/04 09:30:12;;;;;;;8.07;4.53;;;;;;;;;;4924784;29;20063;-80
2022/03/04 09:32:37;;;;;;;7.07;4.05;;;;;;;;;;4911014;29;20067;-80
2022/03/04 09:35:05;;;;;;;8.80;4.18;;;;;;;;;;4909967;29;20047;-80
2022/03/04 09:37:30;;;;;;;8.23;4.30;;;;;;;;;;4927094;29;20044;-80
2022/03/04 09:39:56;;;;;;;6.00;3.63;;;;;;;;;;4907538;29;20035;-80
2022/03/04 09:42:22;;;;;;;6.25;4.05;;;;;;;;;;4909977;29;20406;-81
2022/03/04 09:44:48;;;;;;;8.20;4.10;;;;;;;;;;4925555;29;20183;-80
2022/03/04 09:47:17;;;;;;;7.18;3.83;;;;;;;;;;4924530;29;20043;-80
2022/03/04 09:49:43;;;;;;;7.18;3.80;;;;;;;;;;4923953;29;20948;-80
2022/03/04 09:52:08;;;;;;;7.13;3.28;;;;;;;;;;4925118;29;20032;-80
2022/03/04 09:54:34;;;;;;;6.45;2.85;;;;;;;;;;4909773;29;20054;-81
2022/03/04 09:56:59;;;;;;;8.90;3.35;;;;;;;;;;4924950;29;20031;-80
2022/03/04 09:59:25;;;;;;;8.95;3.10;;;;;;;;;;4926313;29;20055;-80
2022/03/04 10:01:50;;;;;;;8.57;3.00;;;;;;;;;;4923325;29;20032;-80
2022/03/04 10:04:16;;;;;;;10.00;3.90;;;;;;;;;;4925374;29;20515;-80
2022/03/04 10:06:47;;;;;;;8.57;3.78;;;;;;;;;;4925200;29;20032;-80
2022/03/04 10:09:12;;;;;;;6.22;3.35;;;;;;;;;;4909386;29;20043;-80
2022/03/04 10:11:38;;;;;;;8.23;3.53;;;;;;;;;;4924904;29;20048;-81
2022/03/04 10:14:08;;;;;;;6.65;3.58;;;;;;;;;;4910271;29;20032;-80
2022/03/04 10:16:36;;;;;;;8.18;3.97;;;;;;;;;;4908489;29;20087;-80
2022/03/04 10:19:11;;;;;;;;;;;;;;;;;;4909820;29;20040;-81
2022/03/04 10:21:57;;;;;;;5.07;2.60;;;;;;;;;;4922842;28;19969;-81
2022/03/04 10:24:36;;;;;;;7.22;2.75;;;;;;;;;;4909586;29;20055;-81
2022/03/04 10:27:06;;;;;;;8.13;3.00;;;;;;;;;;4907919;29;20043;-81
2022/03/04 10:29:38;;;;;;;6.18;2.55;;;;;;;;;;4903423;29;20047;-81
2022/03/04 10:32:09;;;;;;;6.72;3.05;;;;;;;;;;4907051;29;20043;-81
2022/03/04 10:34:44;;;;;;;8.18;3.47;;;;;;;;;;4924107;29;20058;-81
2022/03/04 10:37:10;;;;;;;6.22;3.40;;;;;;;;;;4939156;29;20134;-81
2022/03/04 10:39:36;;;;;;;8.55;4.07;;;;;;;;;;4907911;29;20764;-81
2022/03/04 10:42:01;;;;;;;9.93;4.65;;;;;;;;;;4922267;29;20043;-81
2022/03/04 10:44:27;;;;;;;10.77;5.70;;;;;;;;;;4908732;29;20123;-78
2022/03/04 10:46:57;;;;;;;9.43;4.63;;;;;;;;;;4922670;29;20503;-80
2022/03/04 10:49:27;;;;;;;9.25;4.68;;;;;;;;;;4908035;29;20053;-80
2022/03/04 10:52:07;;;;;;;8.63;4.32;;;;;;;;;;4938122;28;20043;-80
2022/03/04 10:54:33;;;;;;;11.23;5.03;;;;;;;;;;4907552;29;20039;-79
2022/03/04 10:57:03;;;;;;;9.13;5.05;;;;;;;;;;4907815;29;20083;-79
2022/03/04 10:59:28;;;;;;;7.75;4.57;;;;;;;;;;4923174;29;20154;-80
2022/03/04 11:01:56;;;;;;;6.82;4.28;;;;;;;;;;4908262;29;20043;-81
2022/03/04 11:04:22;;;;;;;7.28;3.63;;;;;;;;;;4908034;29;20048;-80
2022/03/04 11:06:49;;;;;;;5.43;2.85;;;;;;;;;;4921090;29;20592;-79
2022/03/04 11:09:16;;;;;;;5.88;3.17;;;;;;;;;;4906796;29;20078;-81
2022/03/04 11:11:43;;;;;;;5.38;2.88;;;;;;;;;;4907800;29;20055;-80
2022/03/04 11:14:10;;;;;;;5.95;2.70;;;;;;;;;;4910296;29;20059;-80
2022/03/04 11:16:37;;;;;;;5.65;2.92;;;;;;;;;;4908038;29;20070;-80
2022/03/04 11:19:02;;;;;;;4.82;2.78;;;;;;;;;;4908885;29;20051;-80
2022/03/04 11:21:28;;;;;;;8.02;3.33;;;;;;;;;;4908653;29;20040;-81
2022/03/04 11:23:54;;;;;;;5.72;2.97;;;;;;;;;;4924940;29;20071;-81
2022/03/04 11:26:20;;;;;;;6.50;2.42;;;;;;;;;;4917293;29;20058;-80
2022/03/04 11:28:50;;;;;;;6.00;2.70;;;;;;;;;;4921630;29;20051;-81
2022/03/04 11:31:20;;;;;;;5.95;2.63;;;;;;;;;;4923834;29;20046;-80
2022/03/04 11:33:56;;;;;;;5.13;2.90;;;;;;;;;;4909677;29;20043;-81
2022/03/04 11:36:39;;;;;;;6.75;3.45;;;;;;;;;;4906189;29;20130;-80
2022/03/04 11:39:12;;;;;;;7.15;3.50;;;;;;;;;;4923176;29;20767;-80
2022/03/04 11:41:59;;;;;;;5.28;3.20;;;;;;;;;;4910464;29;20056;-80
2022/03/04 11:44:25;;;;;;;8.00;3.72;;;;;;;;;;4913122;29;20148;-80
2022/03/04 11:47:01;;;;;;;7.10;3.80;;;;;;;;;;4921097;29;20060;-80
2022/03/04 11:49:34;;;;;;;5.68;3.92;;;;;;;;;;4907609;29;20596;-80
2022/03/04 11:52:09;;;;;;;6.05;2.80;;;;;;;;;;4922643;29;20043;-80
2022/03/04 11:54:35;;;;;;;5.35;3.65;;;;;;;;;;4925631;29;20043;-81
2022/03/04 11:57:18;;;;;;;5.88;3.63;;;;;;;;;;4922380;29;20110;-80
2022/03/04 11:59:57;;;;;;;6.95;4.15;;;;;;;;;;4907758;29;20040;-80
2022/03/04 12:02:43;;;;;;;7.43;4.47;;;;;;;;;;4906324;29;20095;-80
2022/03/04 12:05:14;;;;;;;6.47;4.38;;;;;;;;;;4922110;29;20591;-80
2022/03/04 12:07:47;;;;;;;6.57;4.35;;;;;;;;;;4925534;29;20134;-79
2022/03/04 12:10:14;;;;;;;8.05;5.03;;;;;;;;;;4925138;29;20039;-81
2022/03/04 12:13:04;;;;;;;7.10;5.22;;;;;;;;;;4916637;29;20050;-80
2022/03/04 12:15:31;;;;;;;8.65;5.32;;;;;;;;;;4912267;29;20046;-80
2022/03/04 12:17:59;;;;;;;;;;;;;;;;;;4929362;29;20051;-80
2022/03/04 12:20:27;;;;;;;;;;;;;;;;;;4927580;29;20002;-80
2022/03/04 12:22:57;;;;;;;7.78;5.65;;;;;;;;;;4929266;29;20449;-79
2022/03/04 12:25:22;;;;;;;7.90;4.70;;;;;;;;;;4926965;29;20532;-79
2022/03/04 12:27:53;;;;;;;7.88;4.90;;;;;;;;;;4913747;29;20054;-79
2022/03/04 12:30:21;;;;;;;7.32;4.47;;;;;;;;;;4906992;29;20047;-80
2022/03/04 12:32:51;;;;;;;7.78;4.43;;;;;;;;;;4928431;29;20047;-79
2022/03/04 12:35:22;;;;;;;6.80;4.13;;;;;;;;;;4942304;29;20369;-79
2022/03/04 12:37:47;;;;;;;6.97;4.55;;;;;;;;;;4926872;29;20047;-80
2022/03/04 12:40:16;;;;;;;7.57;4.70;;;;;;;;;;4926304;29;20459;-79
2022/03/04 12:42:50;;;;;;;7.47;4.70;;;;;;;;;;4927575;29;20039;-80
2022/03/04 12:45:16;;;;;;;8.73;4.07;;;;;;;;;;4927352;29;20035;-80
2022/03/04 12:47:41;;;;;;;6.35;4.30;;;;;;;;;;4911391;29;20048;-80
2022/03/04 12:50:07;;;;;;;7.32;4.38;;;;;;;;;;4916113;29;20424;-80
2022/03/04 12:52:32;;;;;;;7.80;4.85;;;;;;;;;;4911079;29;20714;-81
2022/03/04 12:55:05;;;;;;;7.07;5.18;;;;;;;;;;4912110;29;20046;-80
2022/03/04 12:57:30;;;;;;;6.65;5.65;;;;;;;;;;4927597;29;20062;-80
2022/03/04 12:59:56;;;;;;;8.93;5.78;;;;;;;;;;4912951;29;20431;-80
2022/03/04 13:02:22;;;;;;;8.95;5.70;;;;;;;;;;4916386;29;20142;-80
2022/03/04 13:04:58;;;;;;;8.82;5.65;;;;;;;;;;4917328;29;20047;-80
2022/03/04 13:07:23;;;;;;;12.90;5.40;;;;;;;;;;4892744;29;20040;-80
2022/03/04 13:09:49;;;;;;;8.05;5.35;;;;;;;;;;4928489;29;20537;-81
2022/03/04 13:12:20;;;;;;;6.25;5.00;;;;;;;;;;4914255;29;20035;-80
2022/03/04 13:14:45;;;;;;;8.23;5.03;;;;;;;;;;4929613;29;20554;-80
2022/03/04 13:17:11;;;;;;;7.13;5.35;;;;;;;;;;4930842;29;20035;-80
2022/03/04 13:19:39;;;;;;;8.13;5.20;;;;;;;;;;4932511;29;20516;-80
2022/03/04 13:22:09;;;;;;;6.75;4.65;;;;;;;;;;4917048;29;20126;-80
2022/03/04 13:24:35;;;;;;;6.07;3.90;;;;;;;;;;4928652;29;20521;-80
2022/03/04 13:27:22;;;;;;;7.35;4.03;;;;;;;;;;4929252;29;20046;-79
2022/03/04 13:29:50;;;;;;;8.07;3.50;;;;;;;;;;4876723;29;20052;-79
2022/03/04 13:32:19;;;;;;;6.63;3.05;;;;;;;;;;4874939;29;20040;-79
2022/03/04 13:35:05;;;;;;;5.45;3.55;;;;;;;;;;4866921;29;20051;-80
2022/03/04 13:37:38;;;;;;;6.53;4.00;;;;;;;;;;4844672;29;20131;-80
2022/03/04 13:40:07;;;;;;;7.18;3.67;;;;;;;;;;4881348;29;20040;-80
2022/03/04 13:42:52;;;;;;;6.35;3.45;;;;;;;;;;4877285;29;20044;-76
2022/03/04 13:45:28;;;;;;;7.05;3.60;;;;;;;;;;4876725;29;20974;-80
2022/03/04 13:47:58;;;;;;;5.90;3.38;;;;;;;;;;4892044;29;20048;-81
2022/03/04 13:50:25;;;;;;;7.22;3.53;;;;;;;;;;4868355;29;20055;-81
2022/03/04 13:53:01;;;;;;;6.32;3.40;;;;;;;;;;4892784;29;20040;-81
2022/03/04 13:55:32;;;;;;;4.97;2.80;;;;;;;;;;4891671;29;20044;-80
2022/03/04 13:58:01;;;;;;;6.50;3.17;;;;;;;;;;4877961;29;20029;-80
2022/03/04 14:00:33;;;;;;;7.88;3.63;;;;;;;;;;4875336;29;20052;-80
2022/03/04 14:03:06;;;;;;;6.40;3.38;;;;;;;;;;4877543;29;20480;-81
2022/03/04 14:05:33;;;;;;;6.57;3.85;;;;;;;;;;4892860;29;20033;-78
2022/03/04 14:08:16;;;;;;;5.77;3.60;;;;;;;;;;4942507;28;20415;-80
2022/03/04 14:10:46;;;;;;;7.63;4.00;;;;;;;;;;4926594;29;20072;-81
2022/03/04 14:13:13;;;;;;;6.68;4.47;;;;;;;;;;4912184;29;20809;-79
2022/03/04 14:15:41;;;;;;;5.45;3.83;;;;;;;;;;4928262;29;20043;-79
2022/03/04 14:18:17;;;;;;;;;;;;;;;;;;4916197;29;20043;-79
2022/03/04 14:20:45;;;;;;;8.18;3.90;;;;;;;;;;4927354;28;19921;-80
2022/03/04 14:23:11;;;;;;;7.32;3.85;;;;;;;;;;4924894;29;20046;-80
2022/03/04 14:25:38;;;;;;;7.20;3.97;;;;;;;;;;4912199;28;20035;-79
2022/03/04 14:28:05;;;;;;;6.55;4.10;;;;;;;;;;4911677;29;20043;-79
2022/03/04 14:30:35;;;;;;;8.45;4.53;;;;;;;;;;4912480;29;20618;-78